sensor_id;sensor_type;location;lat;lon;timestamp;pressure;altitude;pressure_sealevel;temperature;humidity
12722;BME280;6425;50.316;8.114;2022-10-17T00:00:31;99364.19;;;14.60;72.10
12722;BME280;6425;50.316;8.114;2022-10-17T00:05:31;99370.09;;;14.98;72.22
12722;BME280;6425;50.316;8.114;2022-10-17T00:10:32;99360.28;;;14.71;74.20
12722;BME280;6425;50.316;8.114;2022-10-17T00:15:34;99372.00;;;15.02;73.32
12722;BME280;6425;50.316;8.114;2022-10-17T00:20:34;99379.41;;;15.07;73.19
12722;BME280;6425;50.316;8.114;2022-10-17T00:25:35;99383.81;;;15.47;72.14
12722;BME280;6425;50.316;8.114;2022-10-17T00:30:37;99380.44;;;13.51;73.33
12722;BME280;6425;50.316;8.114;2022-10-17T00:35:38;99379.09;;;14.54;74.08
12722;BME280;6425;50.316;8.114;2022-10-17T00:40:38;99382.72;;;14.44;75.99
12722;BME280;6425;50.316;8.114;2022-10-17T00:45:40;99383.28;;;15.45;76.47
12722;BME280;6425;50.316;8.114;2022-10-17T00:50:43;99386.88;;;15.80;76.31
12722;BME280;6425;50.316;8.114;2022-10-17T00:55:48;99386.44;;;16.93;73.98
12722;BME280;6425;50.316;8.114;2022-10-17T01:00:51;99394.47;;;15.59;72.59
12722;BME280;6425;50.316;8.114;2022-10-17T01:05:51;99397.41;;;15.39;72.47
12722;BME280;6425;50.316;8.114;2022-10-17T01:10:59;99387.69;;;15.80;70.43
12722;BME280;6425;50.316;8.114;2022-10-17T01:16:08;99399.56;;;16.10;70.54
12722;BME280;6425;50.316;8.114;2022-10-17T01:21:28;99406.84;;;13.57;74.98
12722;BME280;6425;50.316;8.114;2022-10-17T01:26:39;99409.75;;;12.89;82.39
12722;BME280;6425;50.316;8.114;2022-10-17T01:31:46;99407.41;;;13.74;79.26
12722;BME280;6425;50.316;8.114;2022-10-17T01:36:49;99425.63;;;11.45;83.13
12722;BME280;6425;50.316;8.114;2022-10-17T01:41:55;99409.31;;;13.38;79.21
12722;BME280;6425;50.316;8.114;2022-10-17T01:47:04;99404.09;;;13.62;76.07
12722;BME280;6425;50.316;8.114;2022-10-17T01:52:09;99405.94;;;14.23;73.36
12722;BME280;6425;50.316;8.114;2022-10-17T01:57:19;99410.88;;;15.01;71.63
12722;BME280;6425;50.316;8.114;2022-10-17T02:02:24;99398.88;;;14.82;70.46
12722;BME280;6425;50.316;8.114;2022-10-17T02:07:25;99397.81;;;14.62;70.92
12722;BME280;6425;50.316;8.114;2022-10-17T02:12:44;99393.50;;;14.36;72.08
12722;BME280;6425;50.316;8.114;2022-10-17T02:17:52;99388.66;;;13.87;73.52
12722;BME280;6425;50.316;8.114;2022-10-17T02:23:02;99385.66;;;14.73;71.64
12722;BME280;6425;50.316;8.114;2022-10-17T02:33:45;99408.91;;;12.89;78.62
12722;BME280;6425;50.316;8.114;2022-10-17T02:38:49;99405.19;;;13.92;75.38
12722;BME280;6425;50.316;8.114;2022-10-17T02:43:51;99405.69;;;14.24;72.62
12722;BME280;6425;50.316;8.114;2022-10-17T02:48:57;99400.31;;;14.69;71.73
12722;BME280;6425;50.316;8.114;2022-10-17T02:54:04;99394.66;;;14.19;73.27
12722;BME280;6425;50.316;8.114;2022-10-17T02:59:11;99401.31;;;14.83;72.86
12722;BME280;6425;50.316;8.114;2022-10-17T03:04:18;99398.81;;;14.06;72.63
12722;BME280;6425;50.316;8.114;2022-10-17T03:09:18;99393.88;;;13.47;75.67
12722;BME280;6425;50.316;8.114;2022-10-17T03:14:19;99393.41;;;14.61;72.53
12722;BME280;6425;50.316;8.114;2022-10-17T03:19:22;99394.97;;;14.88;70.01
12722;BME280;6425;50.316;8.114;2022-10-17T03:24:25;99402.34;;;15.02;69.41
12722;BME280;6425;50.316;8.114;2022-10-17T03:29:25;99406.66;;;14.64;70.19
12722;BME280;6425;50.316;8.114;2022-10-17T03:34:28;99421.31;;;15.09;69.00
12722;BME280;6425;50.316;8.114;2022-10-17T03:39:28;99424.78;;;14.75;70.14
12722;BME280;6425;50.316;8.114;2022-10-17T03:44:29;99429.41;;;14.95;70.85
12722;BME280;6425;50.316;8.114;2022-10-17T03:49:31;99428.41;;;15.25;70.38
12722;BME280;6425;50.316;8.114;2022-10-17T03:54:32;99417.00;;;15.37;70.32
12722;BME280;6425;50.316;8.114;2022-10-17T03:59:33;99432.91;;;15.11;71.46
12722;BME280;6425;50.316;8.114;2022-10-17T04:04:43;99425.88;;;14.79;73.05
12722;BME280;6425;50.316;8.114;2022-10-17T04:09:43;99432.88;;;15.16;76.30
12722;BME280;6425;50.316;8.114;2022-10-17T04:14:51;99427.03;;;15.23;74.70
12722;BME280;6425;50.316;8.114;2022-10-17T04:19:53;99443.38;;;15.59;74.66
12722;BME280;6425;50.316;8.114;2022-10-17T04:24:53;99447.06;;;16.12;72.96
12722;BME280;6425;50.316;8.114;2022-10-17T04:30:09;99452.84;;;16.45;72.79
12722;BME280;6425;50.316;8.114;2022-10-17T04:35:12;99446.72;;;16.72;71.61
12722;BME280;6425;50.316;8.114;2022-10-17T04:40:16;99447.88;;;15.44;72.58
12722;BME280;6425;50.316;8.114;2022-10-17T04:45:17;99467.97;;;13.90;78.29
12722;BME280;6425;50.316;8.114;2022-10-17T04:50:20;99457.66;;;14.67;77.00
12722;BME280;6425;50.316;8.114;2022-10-17T04:55:39;99456.03;;;14.45;76.01
12722;BME280;6425;50.316;8.114;2022-10-17T05:00:40;99438.16;;;15.08;73.98
12722;BME280;6425;50.316;8.114;2022-10-17T05:05:49;99437.75;;;15.29;75.47
12722;BME280;6425;50.316;8.114;2022-10-17T05:10:50;99449.09;;;15.67;75.24
12722;BME280;6425;50.316;8.114;2022-10-17T07:18:28;99537.66;;;18.86;66.23
12722;BME280;6425;50.316;8.114;2022-10-17T07:23:29;99538.25;;;18.69;66.05
12722;BME280;6425;50.316;8.114;2022-10-17T07:28:30;99552.38;;;18.87;65.25
12722;BME280;6425;50.316;8.114;2022-10-17T07:33:37;99538.41;;;18.59;65.54
12722;BME280;6425;50.316;8.114;2022-10-17T07:38:38;99548.31;;;18.65;65.81
12722;BME280;6425;50.316;8.114;2022-10-17T07:43:39;99553.34;;;19.46;64.21
12722;BME280;6425;50.316;8.114;2022-10-17T07:48:43;99556.38;;;19.08;64.28
12722;BME280;6425;50.316;8.114;2022-10-17T07:53:43;99543.72;;;19.29;62.58
12722;BME280;6425;50.316;8.114;2022-10-17T07:58:44;99561.94;;;19.08;63.07
12722;BME280;6425;50.316;8.114;2022-10-17T08:03:46;99564.28;;;19.01;63.40
12722;BME280;6425;50.316;8.114;2022-10-17T08:08:47;99557.59;;;18.74;63.83
12722;BME280;6425;50.316;8.114;2022-10-17T08:13:47;99578.44;;;18.86;64.38
12722;BME280;6425;50.316;8.114;2022-10-17T08:18:49;99568.91;;;18.92;63.50
12722;BME280;6425;50.316;8.114;2022-10-17T08:23:49;99556.13;;;18.77;64.36
12722;BME280;6425;50.316;8.114;2022-10-17T08:28:49;99561.84;;;18.01;65.66
12722;BME280;6425;50.316;8.114;2022-10-17T08:33:51;99563.63;;;18.76;63.78
12722;BME280;6425;50.316;8.114;2022-10-17T08:38:52;99555.69;;;18.56;64.80
12722;BME280;6425;50.316;8.114;2022-10-17T08:44:02;99532.84;;;18.59;62.55
12722;BME280;6425;50.316;8.114;2022-10-17T08:49:12;99588.81;;;17.96;66.17
12722;BME280;6425;50.316;8.114;2022-10-17T08:54:16;99569.94;;;18.49;64.49
12722;BME280;6425;50.316;8.114;2022-10-17T08:59:22;99557.75;;;18.64;63.24
12722;BME280;6425;50.316;8.114;2022-10-17T09:04:40;99569.44;;;19.21;62.06
12722;BME280;6425;50.316;8.114;2022-10-17T09:09:52;99578.69;;;18.57;63.68
12722;BME280;6425;50.316;8.114;2022-10-17T09:15:25;99569.94;;;19.10;62.82
12722;BME280;6425;50.316;8.114;2022-10-17T09:20:32;99562.31;;;19.70;60.13
12722;BME280;6425;50.316;8.114;2022-10-17T09:25:40;99577.56;;;19.32;61.04
12722;BME280;6425;50.316;8.114;2022-10-17T09:30:43;99560.38;;;19.02;60.87
12722;BME280;6425;50.316;8.114;2022-10-17T09:35:46;99573.44;;;19.43;61.17
12722;BME280;6425;50.316;8.114;2022-10-17T09:40:55;99582.28;;;19.45;60.40
12722;BME280;6425;50.316;8.114;2022-10-17T09:46:01;99596.09;;;19.22;62.08
12722;BME280;6425;50.316;8.114;2022-10-17T09:51:06;99609.84;;;19.00;62.84
12722;BME280;6425;50.316;8.114;2022-10-17T09:56:10;99595.47;;;19.67;61.29
12722;BME280;6425;50.316;8.114;2022-10-17T10:01:17;99621.84;;;19.56;60.94
12722;BME280;6425;50.316;8.114;2022-10-17T10:06:19;99603.28;;;19.78;60.75
12722;BME280;6425;50.316;8.114;2022-10-17T10:11:23;99620.44;;;19.80;60.41
12722;BME280;6425;50.316;8.114;2022-10-17T10:16:31;99611.31;;;20.16;58.34
12722;BME280;6425;50.316;8.114;2022-10-17T10:21:33;99619.75;;;19.75;58.48
12722;BME280;6425;50.316;8.114;2022-10-17T10:26:38;99634.00;;;20.68;57.89
12722;BME280;6425;50.316;8.114;2022-10-17T10:31:39;99624.16;;;21.16;55.23
12722;BME280;6425;50.316;8.114;2022-10-17T10:37:02;99628.91;;;20.93;56.74
12722;BME280;6425;50.316;8.114;2022-10-17T10:42:06;99625.91;;;20.58;58.83
12722;BME280;6425;50.316;8.114;2022-10-17T10:47:20;99631.47;;;20.36;60.02
12722;BME280;6425;50.316;8.114;2022-10-17T10:52:29;99621.03;;;21.66;55.57
12722;BME280;6425;50.316;8.114;2022-10-17T10:57:34;99622.00;;;20.59;58.33
12722;BME280;6425;50.316;8.114;2022-10-17T11:02:41;99637.97;;;20.76;57.37
12722;BME280;6425;50.316;8.114;2022-10-17T11:07:50;99646.38;;;20.62;57.66
12722;BME280;6425;50.316;8.114;2022-10-17T11:12:56;99642.09;;;20.34;60.37
12722;BME280;6425;50.316;8.114;2022-10-17T11:18:01;99646.47;;;21.02;58.25
12722;BME280;6425;50.316;8.114;2022-10-17T11:23:13;99647.47;;;21.06;57.69
12722;BME280;6425;50.316;8.114;2022-10-17T11:28:16;99657.97;;;20.56;60.15
12722;BME280;6425;50.316;8.114;2022-10-17T11:33:24;99640.25;;;21.27;56.43
12722;BME280;6425;50.316;8.114;2022-10-17T11:38:35;99648.69;;;20.38;59.42
12722;BME280;6425;50.316;8.114;2022-10-17T11:43:41;99650.59;;;20.51;59.96
12722;BME280;6425;50.316;8.114;2022-10-17T11:48:47;99649.75;;;20.73;59.14
12722;BME280;6425;50.316;8.114;2022-10-17T11:53:57;99650.97;;;20.81;59.47
12722;BME280;6425;50.316;8.114;2022-10-17T11:59:15;99664.97;;;21.20;58.67
12722;BME280;6425;50.316;8.114;2022-10-17T12:04:25;99668.47;;;21.74;57.50
12722;BME280;6425;50.316;8.114;2022-10-17T12:09:39;99673.56;;;21.33;58.00
12722;BME280;6425;50.316;8.114;2022-10-17T12:14:42;99677.53;;;21.80;56.87
12722;BME280;6425;50.316;8.114;2022-10-17T12:19:42;99685.13;;;21.97;57.22
12722;BME280;6425;50.316;8.114;2022-10-17T12:24:52;99678.94;;;22.17;56.16
12722;BME280;6425;50.316;8.114;2022-10-17T12:29:58;99682.72;;;20.79;59.10
12722;BME280;6425;50.316;8.114;2022-10-17T12:34:59;99692.94;;;20.93;59.83
12722;BME280;6425;50.316;8.114;2022-10-17T12:40:00;99678.31;;;21.10;60.37
12722;BME280;6425;50.316;8.114;2022-10-17T12:45:01;99681.56;;;22.22;57.69
12722;BME280;6425;50.316;8.114;2022-10-17T12:50:02;99671.25;;;21.03;59.78
12722;BME280;6425;50.316;8.114;2022-10-17T12:55:11;99681.63;;;21.12;59.65
12722;BME280;6425;50.316;8.114;2022-10-17T13:00:16;99673.47;;;21.15;60.05
12722;BME280;6425;50.316;8.114;2022-10-17T13:05:23;99665.19;;;21.10;58.74
12722;BME280;6425;50.316;8.114;2022-10-17T13:10:28;99671.25;;;21.74;58.00
12722;BME280;6425;50.316;8.114;2022-10-17T13:15:30;99660.31;;;21.38;58.91
12722;BME280;6425;50.316;8.114;2022-10-17T13:20:31;99669.94;;;21.32;58.90
12722;BME280;6425;50.316;8.114;2022-10-17T13:25:33;99679.56;;;21.57;57.76
12722;BME280;6425;50.316;8.114;2022-10-17T13:30:35;99680.53;;;22.01;57.96
12722;BME280;6425;50.316;8.114;2022-10-17T13:35:36;99678.78;;;22.57;56.16
12722;BME280;6425;50.316;8.114;2022-10-17T13:40:41;99687.81;;;22.11;57.14
12722;BME280;6425;50.316;8.114;2022-10-17T13:45:47;99690.56;;;22.02;57.16
12722;BME280;6425;50.316;8.114;2022-10-17T13:50:50;99701.78;;;21.79;56.75
12722;BME280;6425;50.316;8.114;2022-10-17T13:55:56;99695.72;;;21.77;55.92
12722;BME280;6425;50.316;8.114;2022-10-17T14:00:57;99708.81;;;22.17;56.64
12722;BME280;6425;50.316;8.114;2022-10-17T14:06:01;99707.59;;;21.92;55.45
12722;BME280;6425;50.316;8.114;2022-10-17T14:11:12;99709.75;;;22.03;56.26
12722;BME280;6425;50.316;8.114;2022-10-17T14:16:14;99718.41;;;21.53;57.25
12722;BME280;6425;50.316;8.114;2022-10-17T14:21:18;99714.47;;;21.23;57.70
12722;BME280;6425;50.316;8.114;2022-10-17T14:26:22;99718.28;;;21.27;58.27
12722;BME280;6425;50.316;8.114;2022-10-17T14:31:30;99733.97;;;21.23;58.36
12722;BME280;6425;50.316;8.114;2022-10-17T14:36:35;99728.03;;;20.94;58.94
12722;BME280;6425;50.316;8.114;2022-10-17T14:41:42;99751.34;;;20.98;59.61
12722;BME280;6425;50.316;8.114;2022-10-17T14:46:45;99748.09;;;21.27;58.21
12722;BME280;6425;50.316;8.114;2022-10-17T14:52:23;99745.44;;;20.99;58.02
12722;BME280;6425;50.316;8.114;2022-10-17T14:57:42;99743.28;;;20.96;58.22
12722;BME280;6425;50.316;8.114;2022-10-17T15:02:43;99746.69;;;20.93;59.12
12722;BME280;6425;50.316;8.114;2022-10-17T15:07:44;99741.63;;;20.73;58.65
12722;BME280;6425;50.316;8.114;2022-10-17T15:12:46;99762.09;;;20.91;58.78
12722;BME280;6425;50.316;8.114;2022-10-17T15:46:54;99763.06;;;19.81;63.28
12722;BME280;6425;50.316;8.114;2022-10-17T15:51:56;99781.44;;;20.96;60.02
12722;BME280;6425;50.316;8.114;2022-10-17T15:56:57;99779.34;;;22.09;56.52
12722;BME280;6425;50.316;8.114;2022-10-17T16:01:57;99782.22;;;22.35;55.06
12722;BME280;6425;50.316;8.114;2022-10-17T16:06:59;99782.78;;;22.54;54.30
12722;BME280;6425;50.316;8.114;2022-10-17T16:12:00;99782.53;;;21.85;56.03
12722;BME280;6425;50.316;8.114;2022-10-17T16:17:01;99788.38;;;20.62;59.67
12722;BME280;6425;50.316;8.114;2022-10-17T16:22:02;99796.66;;;20.40;60.25
12722;BME280;6425;50.316;8.114;2022-10-17T16:27:03;99797.69;;;20.30;60.76
12722;BME280;6425;50.316;8.114;2022-10-17T16:32:03;99806.50;;;20.73;59.59
12722;BME280;6425;50.316;8.114;2022-10-17T16:37:05;99812.69;;;20.70;59.57
12722;BME280;6425;50.316;8.114;2022-10-17T16:42:06;99819.88;;;20.71;59.37
12722;BME280;6425;50.316;8.114;2022-10-17T16:47:06;99821.06;;;20.93;58.86
12722;BME280;6425;50.316;8.114;2022-10-17T16:52:08;99832.91;;;20.62;59.91
12722;BME280;6425;50.316;8.114;2022-10-17T16:57:09;99831.38;;;20.56;59.93
12722;BME280;6425;50.316;8.114;2022-10-17T17:02:10;99827.38;;;20.48;60.05
12722;BME280;6425;50.316;8.114;2022-10-17T17:07:12;99831.25;;;19.78;62.96
12722;BME280;6425;50.316;8.114;2022-10-17T17:12:12;99847.56;;;20.68;61.25
12722;BME280;6425;50.316;8.114;2022-10-17T17:17:13;99859.72;;;20.30;61.88
12722;BME280;6425;50.316;8.114;2022-10-17T17:22:15;99850.88;;;20.92;59.52
12722;BME280;6425;50.316;8.114;2022-10-17T17:27:15;99852.00;;;21.41;58.84
12722;BME280;6425;50.316;8.114;2022-10-17T17:32:15;99853.50;;;22.01;56.61
12722;BME280;6425;50.316;8.114;2022-10-17T17:37:17;99859.38;;;21.91;56.01
12722;BME280;6425;50.316;8.114;2022-10-17T17:42:18;99851.44;;;21.62;56.64
12722;BME280;6425;50.316;8.114;2022-10-17T17:47:18;99863.03;;;20.33;60.60
12722;BME280;6425;50.316;8.114;2022-10-17T17:52:20;99859.03;;;20.39;60.88
12722;BME280;6425;50.316;8.114;2022-10-17T17:57:21;99867.72;;;20.18;61.83
12722;BME280;6425;50.316;8.114;2022-10-17T18:02:21;99879.91;;;20.50;60.41
12722;BME280;6425;50.316;8.114;2022-10-17T18:07:23;99879.09;;;20.36;60.76
12722;BME280;6425;50.316;8.114;2022-10-17T18:12:23;99888.63;;;19.56;63.74
12722;BME280;6425;50.316;8.114;2022-10-17T18:17:24;99895.75;;;19.43;64.43
12722;BME280;6425;50.316;8.114;2022-10-17T18:22:26;99894.47;;;19.54;64.06
12722;BME280;6425;50.316;8.114;2022-10-17T18:27:26;99888.22;;;19.62;63.43
12722;BME280;6425;50.316;8.114;2022-10-17T18:32:29;99890.19;;;19.43;64.53
12722;BME280;6425;50.316;8.114;2022-10-17T18:37:31;99883.00;;;19.04;65.68
12722;BME280;6425;50.316;8.114;2022-10-17T18:42:31;99897.25;;;19.54;64.61
12722;BME280;6425;50.316;8.114;2022-10-17T18:47:33;99901.16;;;19.53;64.44
12722;BME280;6425;50.316;8.114;2022-10-17T18:52:35;99892.84;;;19.86;63.38
12722;BME280;6425;50.316;8.114;2022-10-17T18:57:35;99904.00;;;19.99;62.31
12722;BME280;6425;50.316;8.114;2022-10-17T19:02:35;99898.75;;;19.27;64.14
12722;BME280;6425;50.316;8.114;2022-10-17T19:07:37;99900.69;;;19.46;64.03
12722;BME280;6425;50.316;8.114;2022-10-17T19:12:37;99903.88;;;19.91;63.23
12722;BME280;6425;50.316;8.114;2022-10-17T19:17:38;99904.56;;;20.70;59.95
12722;BME280;6425;50.316;8.114;2022-10-17T19:29:27;99899.28;;;20.83;59.53
12722;BME280;6425;50.316;8.114;2022-10-17T19:35:37;99893.31;;;20.75;59.83
12722;BME280;6425;50.316;8.114;2022-10-17T21:46:55;99937.31;;;17.90;71.26
12722;BME280;6425;50.316;8.114;2022-10-17T21:51:55;99937.91;;;18.88;68.30
12722;BME280;6425;50.316;8.114;2022-10-17T21:56:56;99926.53;;;19.27;66.10
12722;BME280;6425;50.316;8.114;2022-10-17T22:01:57;99925.94;;;19.30;65.04
12722;BME280;6425;50.316;8.114;2022-10-17T22:06:58;99942.44;;;19.41;64.79
12722;BME280;6425;50.316;8.114;2022-10-17T22:11:58;99939.56;;;19.51;64.81
12722;BME280;6425;50.316;8.114;2022-10-17T22:17:00;99931.66;;;19.58;64.65
12722;BME280;6425;50.316;8.114;2022-10-17T22:22:00;99927.88;;;19.68;64.07
12722;BME280;6425;50.316;8.114;2022-10-17T22:27:01;99925.41;;;19.47;64.06
12722;BME280;6425;50.316;8.114;2022-10-17T22:32:03;99933.78;;;19.80;64.42
12722;BME280;6425;50.316;8.114;2022-10-17T22:37:03;99924.97;;;19.92;63.78
12722;BME280;6425;50.316;8.114;2022-10-17T22:42:03;99933.06;;;20.07;63.11
12722;BME280;6425;50.316;8.114;2022-10-17T22:47:05;99922.09;;;19.45;63.97
12722;BME280;6425;50.316;8.114;2022-10-17T22:52:06;99934.22;;;17.97;69.24
12722;BME280;6425;50.316;8.114;2022-10-17T22:57:06;99925.47;;;17.01;72.89
12722;BME280;6425;50.316;8.114;2022-10-17T23:02:08;99930.66;;;16.53;75.61
12722;BME280;6425;50.316;8.114;2022-10-17T23:07:08;99926.28;;;17.46;74.14
12722;BME280;6425;50.316;8.114;2022-10-17T23:12:09;99917.50;;;18.31;70.60
12722;BME280;6425;50.316;8.114;2022-10-17T23:17:11;99924.63;;;18.85;67.70
12722;BME280;6425;50.316;8.114;2022-10-17T23:22:11;99924.50;;;19.14;66.93
12722;BME280;6425;50.316;8.114;2022-10-17T23:27:12;99927.88;;;18.92;66.22
12722;BME280;6425;50.316;8.114;2022-10-17T23:32:14;99915.88;;;18.97;66.44
12722;BME280;6425;50.316;8.114;2022-10-17T23:37:14;99925.34;;;18.48;67.56
12722;BME280;6425;50.316;8.114;2022-10-17T23:42:14;99920.91;;;17.94;69.98
12722;BME280;6425;50.316;8.114;2022-10-17T23:47:16;99905.72;;;17.91;70.93
12722;BME280;6425;50.316;8.114;2022-10-17T23:52:17;99917.31;;;17.59;72.38
12722;BME280;6425;50.316;8.114;2022-10-17T23:57:17;99914.44;;;18.03;72.10
